Time;durP1;ratioP1;P1;durP2;ratioP2;P2;SDS_P1;SDS_P2;PMS_P1;PMS_P2;Temp;Humidity;BMP_temperature;BMP_pressure;BME280_temperature;BME280_humidity;BME280_pressure;Samples;Min_cycle;Max_cycle;Signal;HPM_P1;HPM_P2
2021/09/12 00:01:58;;;;;;;;;18.25;15.25;;;;;-147.91;100.00;58652.34;4990088;28;47366;-95
2021/09/12 00:04:27;;;;;;;;;14.50;12.50;;;;;-147.91;100.00;58652.34;4993592;28;45342;-95
2021/09/12 00:06:55;;;;;;;;;17.50;14.00;;;;;-147.91;100.00;58652.34;4995405;28;46974;-96
2021/09/12 00:09:20;;;;;;;;;13.00;13.00;;;;;-147.91;100.00;58652.34;5010466;28;45592;-94
2021/09/12 00:11:46;;;;;;;;;16.25;12.25;;;;;-147.91;100.00;58652.34;4997852;28;47008;-95
2021/09/12 00:14:14;;;;;;;;;19.75;15.00;;;;;-147.91;100.00;58652.34;5009704;28;45543;-96
2021/09/12 00:16:40;;;;;;;;;14.25;14.00;;;;;-147.91;100.00;58652.34;5005466;28;45484;-95
2021/09/12 00:19:05;;;;;;;;;14.75;13.25;;;;;-147.91;100.00;58652.34;4995157;28;45565;-94
2021/09/12 00:21:31;;;;;;;;;19.00;14.75;;;;;-147.91;100.00;58652.34;5011091;28;47228;-95
2021/09/12 00:24:00;;;;;;;;;13.50;11.50;;;;;-147.91;100.00;58652.34;4990152;28;45339;-96
2021/09/12 00:26:28;;;;;;;;;13.50;11.00;;;;;-147.91;100.00;58652.34;5013264;28;45527;-94
2021/09/12 00:28:59;;;;;;;;;12.00;11.00;;;;;-147.91;100.00;58652.34;5016107;28;45612;-95
2021/09/12 00:31:31;;;;;;;;;18.00;12.25;;;;;-147.91;100.00;58652.34;5007585;28;47195;-95
2021/09/12 00:33:56;;;;;;;;;12.50;11.50;;;;;-147.91;100.00;58652.34;5012307;28;45552;-95
2021/09/12 00:36:22;;;;;;;;;12.75;12.75;;;;;-147.91;100.00;58652.34;5008907;28;45444;-94
2021/09/12 00:38:47;;;;;;;;;10.00;9.50;;;;;-147.91;100.00;58652.34;4989499;28;45524;-94
2021/09/12 00:41:13;;;;;;;;;12.75;12.00;;;;;-147.91;100.00;58652.34;5011690;28;47798;-96
2021/09/12 00:43:39;;;;;;;;;11.25;11.00;;;;;-147.91;100.00;58652.34;4992591;28;46240;-94
2021/09/12 00:46:07;;;;;;;;;12.00;10.00;;;;;-147.91;100.00;58652.34;5004180;28;45399;-96
2021/09/12 00:48:36;;;;;;;;;15.00;13.25;;;;;-147.91;100.00;58652.34;4998716;28;45282;-95
2021/09/12 00:51:04;;;;;;;;;12.25;11.75;;;;;-147.91;100.00;58652.34;4996612;28;47653;-96
2021/09/12 00:53:51;;;;;;;;;12.50;10.75;;;;;-147.91;100.00;58652.34;4998970;28;45809;-95
2021/09/12 00:56:22;;;;;;;;;12.75;11.25;;;;;-147.91;100.00;58652.34;5003540;28;45530;-94
2021/09/12 00:58:51;;;;;;;;;11.50;10.00;;;;;-147.91;100.00;58652.34;4994590;28;45686;-95
2021/09/12 01:01:16;;;;;;;;;10.75;10.50;;;;;-147.91;100.00;58652.34;4994656;28;47329;-94
2021/09/12 01:03:44;;;;;;;;;20.00;14.25;;;;;-147.91;100.00;58652.34;4998668;28;45678;-95
2021/09/12 01:06:09;;;;;;;;;14.75;13.00;;;;;-147.91;100.00;58652.34;5010860;28;45692;-95
2021/09/12 01:08:35;;;;;;;;;16.75;11.00;;;;;-147.91;100.00;58652.34;5012784;28;45605;-94
2021/09/12 01:11:01;;;;;;;;;12.00;10.50;;;;;-147.91;100.00;58652.34;5015564;28;45509;-96
2021/09/12 01:13:29;;;;;;;;;11.75;11.00;;;;;-147.91;100.00;58652.34;5004345;28;45353;-95
2021/09/12 01:15:58;;;;;;;;;11.50;9.75;;;;;-147.91;100.00;58652.34;5012437;28;45526;-94
2021/09/12 01:18:23;;;;;;;;;10.25;9.50;;;;;-147.91;100.00;58652.34;5011301;28;45514;-95
2021/09/12 01:20:48;;;;;;;;;9.50;8.50;;;;;-147.91;100.00;58652.34;5010633;28;47204;-94
2021/09/12 01:23:19;;;;;;;;;12.75;10.75;;;;;-147.91;100.00;58652.34;5010299;28;45551;-95
2021/09/12 01:25:44;;;;;;;;;11.00;9.00;;;;;-147.91;100.00;58652.34;5015553;28;45317;-94
2021/09/12 01:28:27;;;;;;;;;14.25;10.25;;;;;-147.91;100.00;58652.34;4999842;28;45487;-95
2021/09/12 01:30:57;;;;;;;;;10.75;9.00;;;;;-147.91;100.00;58652.34;5008278;28;46817;-95
2021/09/12 01:33:26;;;;;;;;;12.00;9.75;;;;;-147.91;100.00;58652.34;5000106;28;45632;-95
2021/09/12 01:35:54;;;;;;;;;10.50;10.50;;;;;-147.91;100.00;58652.34;5014686;28;45405;-94
2021/09/12 01:38:30;;;;;;;;;12.00;9.75;;;;;-147.91;100.00;58652.34;5015119;28;45410;-95
2021/09/12 01:40:55;;;;;;;;;10.50;10.00;;;;;-147.91;100.00;58652.34;5010799;28;45481;-95
2021/09/12 01:43:21;;;;;;;;;11.00;11.00;;;;;-147.91;100.00;58652.34;5022044;28;47052;-96
2021/09/12 01:45:52;;;;;;;;;14.00;12.00;;;;;-147.91;100.00;58652.34;5017396;28;45443;-95
2021/09/12 01:48:18;;;;;;;;;12.75;11.00;;;;;-147.91;100.00;58652.34;5017953;28;45647;-94
2021/09/12 01:50:57;;;;;;;;;16.00;13.25;;;;;-147.91;100.00;58652.34;5008323;28;47340;-95
2021/09/12 01:53:27;;;;;;;;;24.75;18.75;;;;;-147.91;100.00;58652.34;5012097;28;45704;-94
2021/09/12 01:55:52;;;;;;;;;22.00;19.00;;;;;-147.91;100.00;58652.34;5013678;28;46899;-94
2021/09/12 01:58:21;;;;;;;;;19.00;17.50;;;;;-147.91;100.00;58652.34;5030145;28;45565;-95
2021/09/12 02:00:49;;;;;;;;;19.00;14.00;;;;;-147.91;100.00;58652.34;5018049;28;47131;-94
2021/09/12 02:03:15;;;;;;;;;19.00;13.75;;;;;-147.91;100.00;58652.34;5015293;28;45554;-94
2021/09/12 02:05:41;;;;;;;;;19.50;14.50;;;;;-147.91;100.00;58652.34;5030279;28;45557;-94
2021/09/12 02:08:07;;;;;;;;;11.50;11.50;;;;;-147.91;100.00;58652.34;5005473;28;45506;-95
2021/09/12 02:10:33;;;;;;;;;14.75;12.25;;;;;-147.91;100.00;58652.34;5015979;28;48000;-95
2021/09/12 02:12:58;;;;;;;;;11.75;11.75;;;;;-147.91;100.00;58652.34;5013440;28;45842;-95
2021/09/12 02:15:26;;;;;;;;;17.25;14.00;;;;;-147.91;100.00;58652.34;5030544;28;45582;-95
2021/09/12 02:17:59;;;;;;;;;14.00;12.50;;;;;-147.91;100.00;58652.34;5037098;28;45686;-94
2021/09/12 02:20:27;;;;;;;;;20.50;15.00;;;;;-147.91;100.00;58652.34;5033987;28;47063;-94
2021/09/12 02:22:55;;;;;;;;;15.25;13.50;;;;;-147.91;100.00;58652.34;5020504;28;45481;-94
2021/09/12 02:25:21;;;;;;;;;15.00;13.75;;;;;-147.91;100.00;58652.34;5015288;28;45491;-95
2021/09/12 02:28:03;;;;;;;;;15.50;11.75;;;;;-147.91;100.00;58652.34;5020094;28;45425;-96
2021/09/12 02:30:29;;;;;;;;;20.00;13.75;;;;;-147.91;100.00;58652.34;5034520;28;47159;-95
2021/09/12 02:32:55;;;;;;;;;15.25;13.75;;;;;-147.91;100.00;58652.34;5005870;28;45836;-94
2021/09/12 02:35:28;;;;;;;;;18.75;15.00;;;;;-147.91;100.00;58652.34;5026631;28;45482;-94
2021/09/12 02:37:54;;;;;;;;;18.75;14.00;;;;;-147.91;100.00;58652.34;5010319;28;45547;-94
2021/09/12 02:40:39;;;;;;;;;16.00;11.50;;;;;-147.91;100.00;58652.34;5007125;28;48305;-95
2021/09/12 02:43:06;;;;;;;;;15.00;15.00;;;;;-147.91;100.00;58652.34;5017799;28;45736;-94
2021/09/12 02:45:32;;;;;;;;;17.50;14.00;;;;;-147.91;100.00;58652.34;5035782;28;45367;-95
2021/09/12 02:48:05;;;;;;;;;18.00;12.50;;;;;-147.91;100.00;58652.34;5017511;28;45478;-94
2021/09/12 02:50:31;;;;;;;;;13.75;13.75;;;;;-147.91;100.00;58652.34;5025759;28;46616;-94
2021/09/12 02:53:07;;;;;;;;;13.00;12.00;;;;;-147.91;100.00;58652.34;5012476;28;45537;-94
2021/09/12 02:55:33;;;;;;;;;13.25;13.25;;;;;-147.91;100.00;58652.34;5016729;28;45629;-95
2021/09/12 02:58:02;;;;;;;;;15.50;13.00;;;;;-147.91;100.00;58652.34;5017513;28;45762;-95
2021/09/12 03:00:27;;;;;;;;;8.75;8.75;;;;;-147.91;100.00;58652.34;5029388;28;45697;-95
2021/09/12 03:02:53;;;;;;;;;15.50;11.00;;;;;-147.91;100.00;58652.34;5012837;28;46025;-93
2021/09/12 03:05:18;;;;;;;;;14.75;13.50;;;;;-147.91;100.00;58652.34;5031426;28;45484;-93
2021/09/12 03:07:44;;;;;;;;;16.00;12.75;;;;;-147.91;100.00;58652.34;5026870;28;45454;-95
2021/09/12 03:10:10;;;;;;;;;16.50;12.75;;;;;-147.91;100.00;58652.34;5013364;28;47838;-95
2021/09/12 03:12:35;;;;;;;;;14.50;13.25;;;;;-147.91;100.00;58652.34;5023137;28;45464;-94
2021/09/12 03:15:05;;;;;;;;;14.25;12.50;;;;;-147.91;100.00;58652.34;5019780;28;45614;-94
2021/09/12 03:17:30;;;;;;;;;17.00;11.00;;;;;-147.91;100.00;58652.34;5034259;28;45496;-95
2021/09/12 03:19:56;;;;;;;;;15.00;12.00;;;;;-147.91;100.00;58652.34;5021282;28;45614;-95
2021/09/12 03:22:30;;;;;;;;;15.00;12.25;;;;;-147.91;100.00;58652.34;5032674;28;45540;-95
2021/09/12 03:25:12;;;;;;;;;14.25;12.25;;;;;-147.91;100.00;58652.34;5026400;28;45304;-96
2021/09/12 03:27:45;;;;;;;;;15.50;10.50;;;;;-147.91;100.00;58652.34;5016570;28;45352;-95
2021/09/12 03:30:16;;;;;;;;;10.50;9.50;;;;;-147.91;100.00;58652.34;5032351;28;47905;-94
2021/09/12 03:33:06;;;;;;;;;13.00;11.00;;;;;-147.91;100.00;58652.34;5016494;28;46022;-95
2021/09/12 03:35:40;;;;;;;;;11.50;11.50;;;;;-147.91;100.00;58652.34;5028802;28;45487;-95
2021/09/12 03:38:10;;;;;;;;;11.50;10.50;;;;;-147.91;100.00;58652.34;5019472;28;45495;-95
2021/09/12 03:40:36;;;;;;;;;14.50;13.50;;;;;-147.91;100.00;58652.34;5015001;28;47358;-95
2021/09/12 03:43:17;;;;;;;;;12.50;8.75;;;;;-147.91;100.00;58652.34;5020890;28;46067;-93
2021/09/12 03:45:46;;;;;;;;;15.50;11.75;;;;;-147.91;100.00;58652.34;5020556;28;45739;-94
2021/09/12 03:48:11;;;;;;;;;13.75;10.00;;;;;-147.91;100.00;58652.34;5017080;28;45775;-94
2021/09/12 03:50:47;;;;;;;;;15.75;12.25;;;;;-147.91;100.00;58652.34;5012141;28;48067;-95
2021/09/12 03:53:18;;;;;;;;;15.75;11.50;;;;;-147.91;100.00;58652.34;5034357;28;45513;-94
2021/09/12 03:55:47;;;;;;;;;11.50;9.50;;;;;-147.91;100.00;58652.34;5026098;28;45697;-96
2021/09/12 03:58:23;;;;;;;;;13.75;10.75;;;;;-147.91;100.00;58652.34;5024325;28;45507;-94
2021/09/12 04:00:57;;;;;;;;;11.00;9.75;;;;;-147.91;100.00;58652.34;5007765;28;46950;-95
2021/09/12 04:03:25;;;;;;;;;11.75;11.25;;;;;-147.91;100.00;58652.34;5034924;28;45586;-94
2021/09/12 04:05:53;;;;;;;;;18.00;12.25;;;;;-147.91;100.00;58652.34;5013097;28;45671;-94
2021/09/12 04:08:19;;;;;;;;;12.25;11.75;;;;;-147.91;100.00;58652.34;5027632;28;45380;-94
2021/09/12 04:10:44;;;;;;;;;12.50;10.50;;;;;-147.91;100.00;58652.34;5024912;28;47072;-95
2021/09/12 04:13:23;;;;;;;;;16.00;13.00;;;;;-147.91;100.00;58652.34;5015430;28;45646;-94
2021/09/12 04:15:48;;;;;;;;;20.50;11.75;;;;;-147.91;100.00;58652.34;5015031;28;45812;-94
2021/09/12 04:18:32;;;;;;;;;9.25;9.25;;;;;-147.91;100.00;58652.34;5028060;28;45468;-95
2021/09/12 04:20:58;;;;;;;;;13.25;9.50;;;;;-147.91;100.00;58652.34;5006963;28;47253;-94
2021/09/12 04:23:23;;;;;;;;;13.75;12.00;;;;;-147.91;100.00;58652.34;5014281;28;45616;-94
2021/09/12 04:25:49;;;;;;;;;12.25;10.00;;;;;-147.91;100.00;58652.34;5024832;28;45547;-94
2021/09/12 04:28:24;;;;;;;;;12.50;11.50;;;;;-147.91;100.00;58652.34;5014707;28;45491;-95
2021/09/12 04:30:52;;;;;;;;;11.50;11.00;;;;;-147.91;100.00;58652.34;5005556;28;47896;-96
2021/09/12 04:33:23;;;;;;;;;18.00;15.75;;;;;-147.91;100.00;58652.34;5029212;28;46812;-94
2021/09/12 04:35:48;;;;;;;;;13.75;11.00;;;;;-147.91;100.00;58652.34;5027741;28;46095;-95
2021/09/12 04:38:14;;;;;;;;;16.00;12.50;;;;;-147.91;100.00;58652.34;5004733;28;45539;-95
2021/09/12 04:40:51;;;;;;;;;12.00;10.00;;;;;-147.91;100.00;58652.34;5032207;28;46387;-94
2021/09/12 04:43:17;;;;;;;;;13.50;11.75;;;;;-147.91;100.00;58652.34;5024337;28;50879;-94
2021/09/12 04:45:42;;;;;;;;;16.00;13.50;;;;;-147.91;100.00;58652.34;5021760;28;45637;-94
2021/09/12 04:48:08;;;;;;;;;13.75;12.00;;;;;-147.91;100.00;58652.34;5016709;28;45645;-94
2021/09/12 04:50:33;;;;;;;;;13.25;11.75;;;;;-147.91;100.00;58652.34;5023140;28;46432;-94
2021/09/12 04:52:59;;;;;;;;;13.25;11.25;;;;;-147.91;100.00;58652.34;5024735;28;45402;-95
2021/09/12 04:55:25;;;;;;;;;16.75;10.50;;;;;-147.91;100.00;58652.34;5010867;28;45640;-93
2021/09/12 04:57:50;;;;;;;;;13.25;11.00;;;;;-147.91;100.00;58652.34;5018382;28;45622;-94
2021/09/12 05:00:16;;;;;;;;;14.25;12.00;;;;;-147.91;100.00;58652.34;5022034;28;45976;-96
2021/09/12 05:02:41;;;;;;;;;17.25;13.75;;;;;-147.91;100.00;58652.34;5011027;28;45507;-93
2021/09/12 05:05:08;;;;;;;;;17.75;14.00;;;;;-147.91;100.00;58652.34;5024002;28;45470;-93
2021/09/12 05:07:34;;;;;;;;;14.00;12.25;;;;;-147.91;100.00;58652.34;5008795;28;45562;-94
2021/09/12 05:09:59;;;;;;;;;10.25;9.25;;;;;-147.91;100.00;58652.34;5029138;28;45560;-94
2021/09/12 05:12:27;;;;;;;;;12.75;12.25;;;;;-147.91;100.00;58652.34;5031099;28;45520;-93
2021/09/12 05:14:53;;;;;;;;;16.50;15.00;;;;;-147.91;100.00;58652.34;5032766;28;45538;-94
2021/09/12 05:17:18;;;;;;;;;14.50;13.00;;;;;-147.91;100.00;58652.34;5035723;28;45388;-94
2021/09/12 05:19:44;;;;;;;;;12.25;9.50;;;;;-147.91;100.00;58652.34;5010320;28;47148;-94
2021/09/12 05:22:09;;;;;;;;;17.50;11.25;;;;;-147.91;100.00;58652.34;5010324;28;45795;-95
2021/09/12 05:24:35;;;;;;;;;13.50;10.00;;;;;-147.91;100.00;58652.34;5026396;28;45431;-94
2021/09/12 05:27:00;;;;;;;;;10.50;9.50;;;;;-147.91;100.00;58652.34;5018841;28;45616;-94
2021/09/12 05:29:28;;;;;;;;;14.25;12.75;;;;;-147.91;100.00;58652.34;5011617;28;46972;-93
2021/09/12 05:31:53;;;;;;;;;14.75;10.25;;;;;-147.91;100.00;58652.34;5029432;28;46976;-96
2021/09/12 05:34:19;;;;;;;;;11.75;11.25;;;;;-147.91;100.00;58652.34;5024721;28;45445;-94
2021/09/12 05:36:48;;;;;;;;;12.50;9.75;;;;;-147.91;100.00;58652.34;5011027;28;45947;-95
2021/09/12 05:39:13;;;;;;;;;12.00;12.00;;;;;-147.91;100.00;58652.34;5011870;28;47145;-94
2021/09/12 05:41:39;;;;;;;;;12.75;12.25;;;;;-147.91;100.00;58652.34;5033333;28;45598;-95
2021/09/12 05:44:04;;;;;;;;;14.00;10.25;;;;;-147.91;100.00;58652.34;5032401;28;45744;-95
2021/09/12 05:46:32;;;;;;;;;14.75;13.00;;;;;-147.91;100.00;58652.34;5004871;28;45734;-93
2021/09/12 05:48:57;;;;;;;;;17.00;13.50;;;;;-147.91;100.00;58652.34;5013952;28;47230;-92
2021/09/12 05:51:23;;;;;;;;;14.75;13.00;;;;;-147.91;100.00;58652.34;5021697;28;46000;-94
2021/09/12 05:53:48;;;;;;;;;14.00;13.25;;;;;-147.91;100.00;58652.34;5008520;28;45427;-94
2021/09/12 05:56:14;;;;;;;;;15.00;14.00;;;;;-147.91;100.00;58652.34;4999550;28;45317;-93
2021/09/12 05:58:39;;;;;;;;;18.75;15.50;;;;;-147.91;100.00;58652.34;5009777;28;48054;-95
2021/09/12 06:01:05;;;;;;;;;16.75;13.00;;;;;-147.91;100.00;58652.34;5029442;28;45639;-94
2021/09/12 06:03:30;;;;;;;;;13.75;11.75;;;;;-147.91;100.00;58652.34;5029115;28;45592;-94
2021/09/12 06:05:58;;;;;;;;;14.25;13.00;;;;;-147.91;100.00;58652.34;5023015;28;46764;-94
2021/09/12 06:08:24;;;;;;;;;17.00;14.00;;;;;-147.91;100.00;58652.34;5023076;28;48398;-94
2021/09/12 06:10:49;;;;;;;;;15.50;13.75;;;;;-147.91;100.00;58652.34;5009414;28;45804;-94
2021/09/12 06:13:14;;;;;;;;;18.00;15.00;;;;;-147.91;100.00;58652.34;5009605;28;45983;-94
2021/09/12 06:15:40;;;;;;;;;21.25;16.50;;;;;-147.91;100.00;58652.34;5018606;28;45392;-94
2021/09/12 06:18:06;;;;;;;;;17.75;15.00;;;;;-147.91;100.00;58652.34;5026786;28;45421;-94
2021/09/12 06:20:34;;;;;;;;;15.00;15.00;;;;;-147.91;100.00;58652.34;5030345;28;45489;-94
2021/09/12 06:22:59;;;;;;;;;20.25;17.00;;;;;-147.91;100.00;58652.34;5031742;28;45555;-94
2021/09/12 06:25:25;;;;;;;;;21.50;15.75;;;;;-147.91;100.00;58652.34;5022413;28;45409;-93
2021/09/12 06:27:50;;;;;;;;;20.00;17.75;;;;;-147.91;100.00;58652.34;5030571;28;45547;-93
2021/09/12 06:30:18;;;;;;;;;21.25;18.25;;;;;-147.91;100.00;58652.34;5007231;28;45913;-95
2021/09/12 06:33:08;;;;;;;;;21.25;17.75;;;;;-147.91;100.00;58652.34;5026606;28;45634;-95
2021/09/12 06:35:33;;;;;;;;;18.75;16.00;;;;;-147.91;100.00;58652.34;5032258;28;45863;-94
2021/09/12 06:38:04;;;;;;;;;21.50;16.00;;;;;-147.91;100.00;58652.34;5008343;28;46727;-95
2021/09/12 06:40:30;;;;;;;;;18.75;15.50;;;;;-147.91;100.00;58652.34;5013345;28;45769;-94
2021/09/12 06:42:58;;;;;;;;;20.75;17.00;;;;;-147.91;100.00;58652.34;5026519;28;45601;-95
2021/09/12 06:45:25;;;;;;;;;16.75;14.00;;;;;-147.91;100.00;58652.34;5026734;28;45737;-95
2021/09/12 06:47:51;;;;;;;;;19.25;17.00;;;;;-147.91;100.00;58652.34;5027911;28;45590;-94
2021/09/12 06:50:17;;;;;;;;;18.50;17.00;;;;;-147.91;100.00;58652.34;5015331;28;45382;-96
2021/09/12 06:52:42;;;;;;;;;22.50;16.00;;;;;-147.91;100.00;58652.34;5018616;28;45218;-95
2021/09/12 06:55:08;;;;;;;;;21.00;17.50;;;;;-147.91;100.00;58652.34;5035903;28;45297;-95
2021/09/12 06:57:34;;;;;;;;;17.75;16.00;;;;;-147.91;100.00;58652.34;5042168;28;46502;-95
2021/09/12 07:05:12;;;;;;;;;19.75;15.00;;;;;-147.91;100.00;58652.34;5078700;22;45455;-96
2021/09/12 07:10:18;;;;;;;;;18.50;15.50;;;;;-147.91;100.00;58652.34;5044043;28;45129;-96
2021/09/12 07:12:47;;;;;;;;;19.00;16.75;;;;;-147.91;100.00;58652.34;5016972;28;45481;-96
2021/09/12 07:15:13;;;;;;;;;22.00;19.75;;;;;-147.91;100.00;58652.34;5030543;28;45230;-95
2021/09/12 07:17:39;;;;;;;;;17.50;16.00;;;;;-147.91;100.00;58652.34;5028978;28;46962;-95
2021/09/12 07:20:06;;;;;;;;;14.00;12.75;;;;;-147.91;100.00;58652.34;5021189;28;45751;-96
2021/09/12 07:22:39;;;;;;;;;19.00;16.00;;;;;-147.91;100.00;58652.34;5025397;28;45414;-96
2021/09/12 07:25:05;;;;;;;;;15.25;12.50;;;;;-147.91;100.00;58652.34;5027787;28;45442;-96
2021/09/12 07:27:31;;;;;;;;;12.25;11.00;;;;;-147.91;100.00;58652.34;5028767;28;47567;-96
2021/09/12 07:29:57;;;;;;;;;9.00;9.00;;;;;-147.91;100.00;58652.34;5042247;28;45490;-96
2021/09/12 07:32:22;;;;;;;;;9.50;9.00;;;;;-147.91;100.00;58652.34;5040624;28;45447;-95
2021/09/12 07:39:53;;;;;;;;;9.25;8.50;;;;;-147.91;100.00;58652.34;5051240;28;45394;-94
2021/09/12 07:42:18;;;;;;;;;10.00;10.00;;;;;-147.91;100.00;58652.34;5048216;28;45320;-94
2021/09/12 07:44:44;;;;;;;;;12.50;9.00;;;;;-147.91;100.00;58652.34;5054225;22;45928;-95
2021/09/12 07:47:09;;;;;;;;;8.50;7.00;;;;;-147.91;100.00;58652.34;5018550;28;47014;-95
2021/09/12 07:49:34;;;;;;;;;6.75;6.75;;;;;-147.91;100.00;58652.34;5023413;28;45649;-95
2021/09/12 07:52:00;;;;;;;;;10.25;8.75;;;;;-147.91;100.00;58652.34;5035552;28;44911;-95
2021/09/12 07:54:25;;;;;;;;;10.50;9.25;;;;;-147.91;100.00;58652.34;5015782;28;44914;-95
2021/09/12 07:56:51;;;;;;;;;11.00;9.00;;;;;-147.91;100.00;58652.34;5165957;22;47253;-94
2021/09/12 07:59:16;;;;;;;;;9.00;7.50;;;;;-147.91;100.00;58652.34;5017802;28;45571;-95
2021/09/12 08:01:42;;;;;;;;;9.75;9.00;;;;;-147.91;100.00;58652.34;5010800;28;44839;-95
2021/09/12 08:04:08;;;;;;;;;8.25;6.75;;;;;-147.91;100.00;58652.34;5011562;28;46228;-94
2021/09/12 08:09:09;;;;;;;;;7.00;7.00;;;;;-147.91;100.00;58652.34;5232850;22;44973;-95
2021/09/12 08:11:35;;;;;;;;;10.50;6.50;;;;;-147.91;100.00;58652.34;5032078;28;45546;-95
2021/09/12 08:16:35;;;;;;;;;6.75;6.75;;;;;-147.91;100.00;58652.34;5514983;22;45593;-89
2021/09/12 08:21:28;;;;;;;;;5.75;5.00;;;;;-147.91;100.00;58652.34;5051576;28;45516;-96
2021/09/12 08:24:34;;;;;;;;;6.25;6.00;;;;;-147.91;100.00;58652.34;5063869;27;45680;-95
2021/09/12 08:27:10;;;;;;;;;7.50;6.75;;;;;-147.91;100.00;58652.34;5036939;28;46627;-95
2021/09/12 08:30:13;;;;;;;;;7.00;7.00;;;;;-147.91;100.00;58652.34;5046734;28;45529;-93
2021/09/12 08:32:38;;;;;;;;;6.00;5.50;;;;;-147.91;100.00;58652.34;5044020;28;45591;-95
2021/09/12 08:35:04;;;;;;;;;6.75;5.25;;;;;-147.91;100.00;58652.34;5036972;28;45761;-95
2021/09/12 08:37:32;;;;;;;;;7.00;5.00;;;;;-147.91;100.00;58652.34;5052609;28;46954;-95
2021/09/12 08:40:15;;;;;;;;;6.50;6.50;;;;;-147.91;100.00;58652.34;5042430;28;45443;-95
2021/09/12 08:45:16;;;;;;;;;4.00;4.00;;;;;-147.91;100.00;58652.34;5311041;22;45521;-86
2021/09/12 08:47:44;;;;;;;;;4.00;4.00;;;;;-147.91;100.00;58652.34;5010232;28;46674;-90
2021/09/12 08:50:10;;;;;;;;;3.75;3.75;;;;;-147.91;100.00;58652.34;4996864;28;47248;-88
2021/09/12 08:52:36;;;;;;;;;3.00;3.00;;;;;-147.91;100.00;58652.34;5010250;28;45646;-87
2021/09/12 08:55:02;;;;;;;;;5.50;3.00;;;;;-147.91;100.00;58652.34;4992012;28;45791;-82
2021/09/12 08:57:28;;;;;;;;;4.75;2.75;;;;;-147.91;100.00;58652.34;5121268;22;49375;-94
2021/09/12 08:59:53;;;;;;;;;4.75;4.00;;;;;-147.91;100.00;58652.34;5054135;28;45280;-95
2021/09/12 09:02:49;;;;;;;;;3.75;3.75;;;;;-147.91;100.00;58652.34;5039985;28;45418;-94
2021/09/12 09:05:14;;;;;;;;;5.00;3.25;;;;;-147.91;100.00;58652.34;5035971;28;45566;-95
2021/09/12 09:07:40;;;;;;;;;7.25;6.00;;;;;-147.91;100.00;58652.34;5156858;22;46795;-94
2021/09/12 09:10:22;;;;;;;;;9.00;8.00;;;;;-147.91;100.00;58652.34;5038367;28;45463;-96
2021/09/12 09:12:59;;;;;;;;;9.50;5.75;;;;;-147.91;100.00;58652.34;5037186;28;45555;-96
2021/09/12 09:15:50;;;;;;;;;3.75;3.75;;;;;-147.91;100.00;58652.34;5041596;28;45515;-95
2021/09/12 09:18:16;;;;;;;;;4.50;4.25;;;;;-147.91;100.00;58652.34;5052188;28;50317;-96
2021/09/12 09:20:44;;;;;;;;;4.00;4.00;;;;;-147.91;100.00;58652.34;5063885;22;45593;-90
2021/09/12 09:23:10;;;;;;;;;5.50;4.00;;;;;-147.91;100.00;58652.34;5002000;28;45985;-89
2021/09/12 09:25:35;;;;;;;;;4.75;4.75;;;;;-147.91;100.00;58652.34;5704767;22;46014;-93
2021/09/12 09:28:06;;;;;;;;;6.50;5.50;;;;;-147.91;100.00;58652.34;5033374;28;47417;-96
2021/09/12 09:37:28;;;;;;;;;5.00;5.00;;;;;-147.91;100.00;58652.34;4821223;29;47594;-85
2021/09/12 09:39:56;;;;;;;;;9.25;5.00;;;;;-147.91;100.00;58652.34;4812976;29;47483;-84
2021/09/12 09:42:41;;;;;;;;;6.00;5.50;;;;;-147.91;100.00;58652.34;4814642;29;45992;-87
2021/09/12 09:45:11;;;;;;;;;4.00;4.00;;;;;-147.91;100.00;58652.34;4830836;29;45856;-83
2021/09/12 09:47:39;;;;;;;;;8.25;7.00;;;;;-147.91;100.00;58652.34;4830953;29;45737;-83
2021/09/12 09:50:25;;;;;;;;;6.75;5.00;;;;;-147.91;100.00;58652.34;4804530;29;47527;-86
2021/09/12 09:55:31;;;;;;;;;6.50;4.75;;;;;-147.91;100.00;58652.34;5012683;28;45540;-94
2021/09/12 09:57:56;;;;;;;;;4.00;4.00;;;;;-147.91;100.00;58652.34;5014204;28;45485;-93
2021/09/12 10:00:24;;;;;;;;;4.75;4.00;;;;;-147.91;100.00;58652.34;4996863;28;47590;-94
2021/09/12 10:02:58;;;;;;;;;4.00;4.00;;;;;-147.91;100.00;58652.34;4998478;28;45022;-95
2021/09/12 10:05:27;;;;;;;;;3.00;3.00;;;;;-147.91;100.00;58652.34;5004342;28;45760;-94
2021/09/12 10:07:55;;;;;;;;;6.00;5.00;;;;;-147.91;100.00;58652.34;5011606;28;45479;-95
2021/09/12 10:10:21;;;;;;;;;2.00;2.00;;;;;-147.91;100.00;58652.34;4994022;28;46791;-94
2021/09/12 10:12:51;;;;;;;;;5.75;4.00;;;;;-147.91;100.00;58652.34;5025080;28;45652;-94
2021/09/12 10:15:33;;;;;;;;;4.00;4.00;;;;;-147.91;100.00;58652.34;5015619;28;45411;-95
2021/09/12 10:17:59;;;;;;;;;5.00;5.00;;;;;-147.91;100.00;58652.34;5001323;28;45521;-95
2021/09/12 10:20:27;;;;;;;;;7.00;4.75;;;;;-147.91;100.00;58652.34;4991530;28;47981;-95
2021/09/12 10:23:00;;;;;;;;;4.00;4.00;;;;;-147.91;100.00;58652.34;5059773;22;46116;-86
2021/09/12 10:25:33;;;;;;;;;3.75;3.00;;;;;-147.91;100.00;58652.34;5007678;28;45522;-83
2021/09/12 10:28:06;;;;;;;;;3.50;3.00;;;;;-147.91;100.00;58652.34;5411248;22;45560;-94
2021/09/12 10:30:39;;;;;;;;;3.50;3.50;;;;;-147.91;100.00;58652.34;4996646;28;47474;-93
2021/09/12 10:33:05;;;;;;;;;6.75;6.00;;;;;-147.91;100.00;58652.34;4996358;28;45581;-95
2021/09/12 10:35:36;;;;;;;;;4.50;4.50;;;;;-147.91;100.00;58652.34;5004527;28;45962;-94
2021/09/12 10:38:04;;;;;;;;;6.75;5.50;;;;;-147.91;100.00;58652.34;4996114;28;45408;-93
2021/09/12 10:40:48;;;;;;;;;6.50;6.50;;;;;-147.91;100.00;58652.34;5015260;28;45194;-94
2021/09/12 10:43:26;;;;;;;;;6.50;5.50;;;;;-147.91;100.00;58652.34;5025809;22;45379;-84
2021/09/12 10:46:03;;;;;;;;;7.00;5.25;;;;;-147.91;100.00;58652.34;5038318;22;45363;-95
2021/09/12 10:48:31;;;;;;;;;4.00;4.00;;;;;-147.91;100.00;58652.34;4992479;28;45493;-95
2021/09/12 10:53:47;;;;;;;;;4.75;4.00;;;;;-147.91;100.00;58652.34;5089621;22;45801;-81
2021/09/12 10:56:16;;;;;;;;;5.50;5.00;;;;;-147.91;100.00;58652.34;5038678;22;45846;-94
2021/09/12 10:58:54;;;;;;;;;6.50;6.00;;;;;-147.91;100.00;58652.34;5034814;28;45423;-96
2021/09/12 11:01:30;;;;;;;;;7.00;6.00;;;;;-147.91;100.00;58652.34;5055342;28;46214;-95
2021/09/12 11:04:00;;;;;;;;;8.00;4.50;;;;;-147.91;100.00;58652.34;5040839;28;45349;-96
2021/09/12 11:06:57;;;;;;;;;5.00;5.00;;;;;-147.91;100.00;58652.34;5066161;28;45276;-96
2021/09/12 11:09:25;;;;;;;;;7.75;5.25;;;;;-147.91;100.00;58652.34;5039410;28;45447;-96
2021/09/12 11:11:56;;;;;;;;;6.00;6.00;;;;;-147.91;100.00;58652.34;5039405;28;46879;-96
2021/09/12 11:14:31;;;;;;;;;5.00;5.00;;;;;-147.91;100.00;58652.34;5058585;28;45466;-96
2021/09/12 11:17:10;;;;;;;;;6.00;6.00;;;;;-147.91;100.00;58652.34;5032733;28;45728;-92
2021/09/12 11:22:11;;;;;;;;;7.25;5.75;;;;;-147.91;100.00;58652.34;5199175;22;45714;-92
2021/09/12 11:24:37;;;;;;;;;7.50;6.00;;;;;-147.91;100.00;58652.34;5012290;28;45482;-93
2021/09/12 11:27:05;;;;;;;;;7.50;6.25;;;;;-147.91;100.00;58652.34;5023394;28;46622;-95
2021/09/12 11:29:37;;;;;;;;;5.00;5.00;;;;;-147.91;100.00;58652.34;5030527;28;45389;-96
2021/09/12 11:32:13;;;;;;;;;8.50;6.00;;;;;-147.91;100.00;58652.34;5038350;28;45542;-95
2021/09/12 11:34:42;;;;;;;;;9.00;6.00;;;;;-147.91;100.00;58652.34;5027126;28;45890;-94
2021/09/12 11:37:11;;;;;;;;;6.50;6.25;;;;;-147.91;100.00;58652.34;5003933;28;45616;-96
2021/09/12 11:39:45;;;;;;;;;6.50;6.50;;;;;-147.91;100.00;58652.34;5024945;28;45704;-93
2021/09/12 11:42:13;;;;;;;;;6.75;6.00;;;;;-147.91;100.00;58652.34;5030181;28;47074;-95
2021/09/12 11:45:01;;;;;;;;;6.25;6.25;;;;;-147.91;100.00;58652.34;5027271;28;45483;-94
2021/09/12 11:47:37;;;;;;;;;7.00;5.00;;;;;-147.91;100.00;58652.34;5032319;28;45651;-94